createdAt,value
2018-03-25T00:41:14.859Z,8.15
2018-03-25T00:43:44.041Z,8.24
2018-03-25T00:46:15.759Z,8.28
2018-03-25T00:48:44.260Z,8.35
2018-03-25T00:51:13.548Z,8.39
2018-03-25T00:53:42.015Z,8.44
2018-03-25T00:56:10.579Z,8.43
2018-03-25T00:58:39.009Z,8.44
2018-03-25T01:01:14.529Z,8.39
2018-03-25T01:03:43.257Z,8.43
2018-03-25T01:06:12.252Z,8.42
2018-03-25T01:08:40.816Z,8.44
2018-03-25T01:11:09.243Z,8.46
2018-03-25T01:13:37.623Z,8.48
2018-03-25T01:16:14.268Z,8.48
2018-03-25T01:18:42.851Z,8.44
2018-03-25T01:21:11.461Z,8.44
2018-03-25T01:23:39.882Z,8.41
2018-03-25T01:26:08.611Z,8.36
2018-03-25T01:28:36.985Z,8.44
2018-03-25T01:31:06.129Z,8.46
2018-03-25T01:33:34.489Z,8.44
2018-03-25T01:36:02.925Z,8.53
2018-03-25T01:38:31.714Z,8.43
2018-03-25T01:41:00.073Z,8.36
2018-03-25T01:43:28.683Z,8.44
2018-03-25T01:45:57.758Z,8.44
2018-03-25T01:48:26.118Z,8.40
2018-03-25T01:50:54.494Z,8.40
2018-03-25T01:53:23.697Z,8.42
2018-03-25T01:55:53.543Z,8.38
2018-03-25T01:58:21.931Z,8.36
2018-03-25T02:00:51.022Z,8.28
2018-03-25T02:03:19.617Z,8.28
2018-03-25T02:05:48.197Z,8.25
2018-03-25T02:08:16.873Z,8.25
2018-03-25T02:10:45.320Z,8.30
2018-03-25T02:13:13.938Z,8.41
2018-03-25T02:15:43.249Z,8.35
2018-03-25T02:18:11.733Z,8.33
2018-03-25T02:20:40.118Z,8.41
2018-03-25T02:23:08.642Z,8.34
2018-03-25T02:25:37.023Z,8.38
2018-03-25T02:28:05.398Z,8.33
2018-03-25T02:30:34.630Z,8.35
2018-03-25T02:33:03.018Z,8.29
2018-03-25T02:35:31.378Z,8.24
2018-03-25T02:38:00.242Z,8.25
2018-03-25T02:40:28.628Z,8.20
2018-03-25T02:42:57.587Z,8.15
2018-03-25T02:45:25.999Z,8.21
2018-03-25T02:47:54.369Z,8.10
2018-03-25T02:50:22.746Z,8.08
2018-03-25T02:52:51.229Z,8.07
2018-03-25T02:55:19.803Z,8.10
2018-03-25T02:57:48.505Z,8.13
2018-03-25T03:00:17.583Z,8.13
2018-03-25T03:02:45.973Z,8.25
2018-03-25T03:05:14.556Z,8.13
2018-03-25T03:07:43.049Z,8.24
2018-03-25T03:10:12.572Z,8.26
2018-03-25T03:12:40.929Z,8.20
2018-03-25T03:15:09.396Z,8.20
2018-03-25T03:17:38.611Z,8.11
2018-03-25T03:20:06.992Z,8.18
2018-03-25T03:22:35.453Z,8.33
2018-03-25T03:25:03.852Z,8.36
2018-03-25T03:27:32.214Z,8.40
2018-03-25T03:30:00.635Z,8.37
2018-03-25T03:32:29.005Z,8.31
2018-03-25T03:34:57.376Z,8.36
2018-03-25T03:37:25.737Z,8.26
2018-03-25T03:39:54.101Z,8.09
2018-03-25T03:42:22.449Z,8.07
2018-03-25T03:44:50.883Z,8.10
2018-03-25T03:47:19.255Z,8.21
2018-03-25T03:49:47.701Z,8.21
2018-03-25T03:52:16.958Z,8.21
2018-03-25T03:54:45.571Z,8.26
2018-03-25T03:57:14.357Z,8.22
2018-03-25T03:59:43.962Z,8.13
2018-03-25T04:02:12.489Z,8.13
2018-03-25T04:04:42.176Z,8.08
2018-03-25T04:07:10.665Z,8.09
2018-03-25T04:09:39.028Z,8.08
2018-03-25T04:12:07.401Z,8.19
2018-03-25T04:14:35.874Z,8.14
2018-03-25T04:17:04.268Z,7.94
2018-03-25T04:19:32.786Z,7.91
2018-03-25T04:22:02.549Z,7.91
2018-03-25T04:24:30.895Z,7.98
2018-03-25T04:26:59.253Z,8.01
2018-03-25T04:29:27.625Z,8.10
2018-03-25T04:31:56.057Z,8.00
2018-03-25T04:34:24.397Z,7.95
2018-03-25T04:36:53.022Z,7.90
2018-03-25T04:39:21.743Z,7.93
2018-03-25T04:41:50.133Z,7.96
2018-03-25T04:44:18.884Z,7.86
2018-03-25T04:46:47.298Z,7.89
2018-03-25T04:49:15.676Z,8.00
2018-03-25T04:51:44.227Z,8.04
2018-03-25T04:54:12.705Z,8.15
2018-03-25T04:56:41.428Z,8.03
2018-03-25T04:59:10.845Z,7.84
2018-03-25T05:01:39.242Z,7.74
2018-03-25T05:04:07.596Z,7.80
2018-03-25T05:06:35.970Z,7.85
2018-03-25T05:09:04.353Z,7.84
2018-03-25T05:11:32.722Z,7.89
2018-03-25T05:14:01.114Z,7.83
2018-03-25T05:16:29.826Z,7.89
2018-03-25T05:18:58.224Z,7.90
2018-03-25T05:21:27.376Z,7.87
2018-03-25T05:23:55.725Z,7.92
2018-03-25T05:26:24.075Z,7.92
2018-03-25T05:28:52.987Z,7.95
2018-03-25T05:31:21.637Z,7.96
2018-03-25T05:33:50.005Z,7.87
2018-03-25T05:36:18.612Z,7.91
2018-03-25T05:38:47.347Z,7.98
2018-03-25T05:41:15.708Z,7.95
2018-03-25T05:43:44.983Z,7.96
2018-03-25T05:46:13.409Z,7.98
2018-03-25T05:48:41.762Z,7.96
2018-03-25T05:51:10.242Z,7.97
2018-03-25T05:53:38.616Z,8.02
2018-03-25T05:56:07.015Z,8.07
2018-03-25T05:58:36.326Z,8.04
2018-03-25T06:01:04.711Z,8.04
2018-03-25T06:03:33.112Z,8.08
2018-03-25T06:06:02.208Z,8.13
2018-03-25T06:08:30.560Z,8.10
2018-03-25T06:10:58.933Z,8.12
2018-03-25T06:13:27.653Z,8.21
2018-03-25T06:15:56.083Z,8.13
2018-03-25T06:18:24.425Z,8.13
2018-03-25T06:20:52.842Z,7.95
2018-03-25T06:23:21.257Z,8.01
2018-03-25T06:25:50.146Z,7.97
2018-03-25T06:28:18.607Z,8.02
2018-03-25T06:30:47.297Z,8.11
2018-03-25T06:33:16.114Z,8.12
2018-03-25T06:35:44.852Z,8.13
2018-03-25T06:38:13.276Z,8.07
2018-03-25T06:40:41.737Z,8.13
2018-03-25T06:43:10.218Z,8.13
2018-03-25T06:45:39.169Z,8.16
2018-03-25T06:48:07.530Z,8.07
2018-03-25T06:50:35.905Z,8.01
2018-03-25T06:53:04.333Z,8.07
2018-03-25T06:55:32.722Z,8.15
2018-03-25T06:58:01.955Z,8.24
2018-03-25T07:00:30.303Z,8.31
2018-03-25T07:02:58.662Z,8.21
2018-03-25T07:05:27.225Z,8.29
2018-03-25T07:07:55.644Z,8.34
2018-03-25T07:10:24.124Z,8.39
2018-03-25T07:12:52.523Z,8.33
2018-03-25T07:15:20.910Z,8.38
2018-03-25T07:17:49.479Z,8.30
2018-03-25T07:20:17.972Z,8.35
2018-03-25T07:22:46.556Z,8.21
2018-03-25T07:25:15.309Z,8.11
2018-03-25T07:27:44.594Z,8.17
2018-03-25T07:30:12.990Z,8.12
2018-03-25T07:32:41.422Z,8.10
2018-03-25T07:35:10.049Z,8.20
2018-03-25T07:37:38.517Z,8.10
2018-03-25T07:40:06.827Z,8.11
2018-03-25T07:42:35.242Z,8.05
2018-03-25T07:45:03.660Z,8.04
2018-03-25T07:47:32.145Z,8.14
2018-03-25T07:50:01.715Z,8.12
2018-03-25T07:52:30.177Z,8.02
2018-03-25T07:54:58.629Z,8.05
2018-03-25T07:57:27.360Z,8.05
2018-03-25T07:59:55.778Z,7.98
2018-03-25T08:02:24.216Z,7.97
2018-03-25T08:04:53.126Z,8.01
2018-03-25T08:07:21.753Z,7.92
2018-03-25T08:09:51.449Z,7.93
2018-03-25T08:12:21.150Z,7.96
2018-03-25T08:14:49.764Z,7.95
2018-03-25T08:17:18.328Z,7.98
2018-03-25T08:19:48.323Z,8.05
2018-03-25T08:22:16.982Z,8.11
2018-03-25T08:24:45.425Z,8.23
2018-03-25T08:27:14.205Z,8.35
2018-03-25T08:29:42.864Z,8.36
2018-03-25T08:32:11.607Z,8.43
2018-03-25T08:34:40.151Z,8.57
2018-03-25T08:37:08.521Z,8.60
2018-03-25T08:39:37.060Z,8.51
2018-03-25T08:42:05.920Z,8.60
2018-03-25T08:44:34.306Z,8.50
2018-03-25T08:47:02.870Z,8.39
2018-03-25T08:49:31.260Z,8.41
2018-03-25T08:51:59.624Z,8.49
2018-03-25T08:54:27.998Z,8.57
2018-03-25T08:56:56.508Z,8.68
2018-03-25T08:59:24.864Z,8.84
2018-03-25T09:01:53.377Z,8.77
2018-03-25T09:04:22.032Z,8.67
2018-03-25T09:06:50.433Z,8.80
2018-03-25T09:09:19.099Z,8.90
2018-03-25T09:11:47.814Z,9.03
2018-03-25T09:14:16.563Z,8.91
2018-03-25T09:16:44.998Z,8.97
2018-03-25T09:19:14.573Z,9.17
2018-03-25T09:21:43.764Z,9.01
2018-03-25T09:24:13.008Z,9.16
2018-03-25T09:26:41.791Z,9.31
2018-03-25T09:29:10.228Z,9.25
2018-03-25T09:31:38.802Z,9.51
2018-03-25T09:34:07.619Z,9.51
2018-03-25T09:36:36.340Z,9.62
2018-03-25T09:39:04.712Z,9.58
2018-03-25T09:41:33.444Z,9.57
2018-03-25T09:44:01.916Z,9.52
2018-03-25T09:46:30.543Z,9.40
2018-03-25T09:48:58.995Z,9.40
2018-03-25T09:51:27.596Z,9.39
2018-03-25T09:53:55.992Z,9.34
2018-03-25T09:56:24.465Z,9.42
2018-03-25T09:58:53.431Z,9.53
2018-03-25T10:01:28.112Z,9.49
2018-03-25T10:03:56.672Z,9.51
2018-03-25T10:06:25.418Z,9.26
2018-03-25T10:08:54.273Z,9.35
2018-03-25T10:11:22.937Z,9.65
2018-03-25T10:13:51.728Z,9.47
2018-03-25T10:16:21.245Z,9.77
2018-03-25T10:18:50.201Z,9.65
2018-03-25T10:21:18.790Z,9.57
2018-03-25T10:23:47.586Z,9.60
2018-03-25T10:26:17.872Z,9.64
2018-03-25T10:28:46.783Z,9.67
2018-03-25T10:31:16.272Z,9.69
2018-03-25T10:33:45.983Z,9.76
2018-03-25T10:36:14.945Z,9.89
2018-03-25T10:38:44.704Z,9.95
2018-03-25T10:41:14.324Z,9.99
2018-03-25T10:43:43.610Z,9.86
2018-03-25T10:46:13.216Z,9.84
2018-03-25T10:48:42.881Z,9.78
2018-03-25T10:51:11.398Z,9.80
2018-03-25T10:53:39.918Z,9.88
2018-03-25T10:56:08.600Z,9.82
2018-03-25T10:58:37.353Z,9.84
2018-03-25T11:01:06.059Z,9.93
2018-03-25T11:03:35.189Z,10.07
2018-03-25T11:06:04.027Z,10.02
2018-03-25T11:08:33.301Z,10.18
2018-03-25T11:11:01.814Z,10.12
2018-03-25T11:13:30.169Z,9.85
2018-03-25T11:15:59.935Z,10.09
2018-03-25T11:18:28.364Z,10.28
2018-03-25T11:20:56.892Z,10.34
2018-03-25T11:23:25.776Z,10.17
2018-03-25T11:25:55.101Z,10.17
2018-03-25T11:28:23.983Z,10.31
2018-03-25T11:30:53.030Z,10.32
2018-03-25T11:33:22.510Z,10.35
2018-03-25T11:35:51.525Z,10.50
2018-03-25T11:38:20.957Z,10.59
2018-03-25T11:40:50.178Z,10.49
2018-03-25T11:43:18.899Z,10.56
2018-03-25T11:45:48.330Z,10.62
2018-03-25T11:48:16.834Z,10.62
2018-03-25T11:50:45.374Z,10.64
2018-03-25T11:53:14.122Z,10.68
2018-03-25T11:55:43.969Z,10.63
2018-03-25T11:58:16.354Z,10.58
2018-03-25T12:00:45.037Z,10.45
2018-03-25T12:03:13.753Z,10.37
2018-03-25T12:05:42.209Z,10.20
2018-03-25T12:08:11.473Z,10.13
2018-03-25T12:10:39.885Z,10.09
2018-03-25T12:13:08.284Z,10.06
2018-03-25T12:15:36.762Z,10.04
2018-03-25T12:18:05.237Z,10.07
2018-03-25T12:20:33.613Z,10.10
2018-03-25T12:23:02.065Z,10.08
2018-03-25T12:25:30.497Z,10.04
2018-03-25T12:27:59.855Z,9.98
2018-03-25T12:30:28.917Z,9.92
2018-03-25T12:35:30.978Z,9.90
2018-03-25T12:37:59.847Z,9.91
2018-03-25T12:40:28.248Z,10.01
2018-03-25T12:42:58.590Z,10.08
2018-03-25T12:45:27.153Z,10.20
2018-03-25T12:47:58.651Z,10.25
2018-03-25T12:50:27.950Z,10.26
2018-03-25T12:52:56.851Z,10.26
2018-03-25T12:55:25.533Z,10.27
2018-03-25T12:57:55.096Z,10.30
2018-03-25T13:00:25.478Z,10.28
2018-03-25T13:02:53.992Z,10.29
2018-03-25T13:05:22.995Z,10.25
2018-03-25T13:07:52.297Z,10.28
2018-03-25T13:10:21.285Z,10.31
2018-03-25T13:12:50.570Z,10.32
2018-03-25T13:15:20.324Z,10.41
2018-03-25T13:17:49.217Z,10.43
2018-03-25T13:20:18.333Z,10.50
2018-03-25T13:22:47.647Z,10.52
2018-03-25T13:25:16.930Z,10.59
2018-03-25T13:27:45.774Z,10.62
2018-03-25T13:30:14.382Z,10.56
2018-03-25T13:32:43.066Z,10.48
2018-03-25T13:35:11.721Z,10.47
2018-03-25T13:37:40.211Z,10.36
2018-03-25T13:40:08.693Z,10.33
2018-03-25T13:42:37.288Z,10.36
2018-03-25T13:45:05.718Z,10.46
2018-03-25T13:47:34.124Z,10.46
2018-03-25T13:50:03.015Z,10.59
2018-03-25T13:52:31.501Z,10.66
2018-03-25T13:54:59.991Z,10.68
2018-03-25T13:57:28.758Z,10.75
2018-03-25T13:59:57.283Z,10.79
2018-03-25T14:02:25.725Z,10.71
2018-03-25T14:04:55.487Z,10.63
2018-03-25T14:07:24.127Z,10.59
2018-03-25T14:09:52.810Z,10.55
2018-03-25T14:12:22.790Z,10.58
2018-03-25T14:14:51.394Z,10.64
2018-03-25T14:17:19.870Z,10.75
2018-03-25T14:19:48.889Z,10.76
2018-03-25T14:22:17.338Z,10.68
2018-03-25T14:24:45.879Z,10.64
2018-03-25T14:27:14.597Z,10.88
2018-03-25T14:29:44.300Z,10.67
2018-03-25T14:32:13.148Z,10.77
2018-03-25T14:34:43.335Z,10.76
2018-03-25T14:37:13.230Z,10.83
2018-03-25T14:39:42.125Z,10.74
2018-03-25T14:42:10.630Z,10.82
2018-03-25T14:44:39.068Z,10.84
2018-03-25T14:47:08.454Z,10.83
2018-03-25T14:49:36.986Z,10.72
2018-03-25T14:52:05.445Z,10.68
2018-03-25T14:54:33.897Z,10.72
2018-03-25T14:57:03.990Z,10.76
2018-03-25T14:59:32.709Z,10.79
2018-03-25T15:02:01.378Z,10.79
2018-03-25T15:04:29.892Z,10.80
2018-03-25T15:06:58.283Z,10.58
2018-03-25T15:09:27.319Z,10.69
2018-03-25T15:11:57.750Z,10.67
2018-03-25T15:14:26.271Z,10.54
2018-03-25T15:16:54.689Z,10.44
2018-03-25T15:19:24.459Z,10.42
2018-03-25T15:21:52.906Z,10.40
2018-03-25T15:24:21.383Z,10.38
2018-03-25T15:26:50.232Z,10.37
2018-03-25T15:29:18.670Z,10.34
2018-03-25T15:31:47.188Z,10.34
2018-03-25T15:34:18.032Z,10.24
2018-03-25T15:36:46.744Z,10.23
2018-03-25T15:39:15.221Z,10.17
2018-03-25T15:41:43.990Z,10.17
2018-03-25T15:44:12.494Z,10.12
2018-03-25T15:46:41.190Z,10.10
2018-03-25T15:49:09.650Z,10.05
2018-03-25T15:51:38.028Z,10.00
2018-03-25T15:54:06.449Z,9.99
2018-03-25T15:56:35.277Z,9.92
2018-03-25T15:59:03.681Z,9.95
2018-03-25T16:01:32.043Z,10.01
2018-03-25T16:04:01.542Z,9.99
2018-03-25T16:06:29.988Z,9.98
2018-03-25T16:08:58.390Z,9.99
2018-03-25T16:11:26.821Z,9.97
2018-03-25T16:13:55.231Z,9.94
2018-03-25T16:16:23.805Z,9.84
2018-03-25T16:18:52.413Z,9.87
2018-03-25T16:21:20.866Z,9.90
2018-03-25T16:23:50.385Z,9.95
2018-03-25T16:26:19.628Z,9.91
2018-03-25T16:28:48.282Z,9.91
2018-03-25T16:31:16.813Z,9.89
2018-03-25T16:33:45.467Z,9.87
2018-03-25T16:36:14.166Z,9.87
2018-03-25T16:38:42.819Z,9.89
2018-03-25T16:41:13.220Z,9.86
2018-03-25T16:43:41.748Z,9.84
2018-03-25T16:46:10.122Z,9.86
2018-03-25T16:48:38.837Z,9.81
2018-03-25T16:51:07.281Z,9.81
2018-03-25T16:53:36.887Z,9.76
2018-03-25T16:56:05.370Z,9.76
2018-03-25T16:58:33.770Z,9.76
2018-03-25T17:01:02.295Z,9.75
2018-03-25T17:03:30.747Z,9.71
2018-03-25T17:05:59.269Z,9.70
2018-03-25T17:08:28.604Z,9.73
2018-03-25T17:10:57.246Z,9.72
2018-03-25T17:13:25.712Z,9.70
2018-03-25T17:15:54.218Z,9.68
2018-03-25T17:18:23.541Z,9.66
2018-03-25T17:20:52.217Z,9.62
2018-03-25T17:23:20.916Z,9.54
2018-03-25T17:25:50.303Z,9.52
2018-03-25T17:28:18.743Z,9.50
2018-03-25T17:30:47.438Z,9.50
2018-03-25T17:33:16.246Z,9.44
2018-03-25T17:35:44.847Z,9.42
2018-03-25T17:38:13.370Z,9.42
2018-03-25T17:40:42.340Z,9.37
2018-03-25T17:43:10.979Z,9.32
2018-03-25T17:45:39.621Z,9.26
2018-03-25T17:48:08.628Z,9.23
2018-03-25T17:50:37.089Z,9.23
2018-03-25T17:53:05.554Z,9.12
2018-03-25T17:55:34.024Z,9.16
2018-03-25T17:58:02.514Z,9.12
2018-03-25T18:00:30.920Z,9.06
2018-03-25T18:03:00.443Z,9.11
2018-03-25T18:05:28.857Z,9.19
2018-03-25T18:07:57.291Z,9.10
2018-03-25T18:10:26.566Z,9.14
2018-03-25T18:12:55.065Z,9.11
2018-03-25T18:15:23.551Z,9.20
2018-03-25T18:17:52.662Z,9.15
2018-03-25T18:20:21.728Z,9.11
2018-03-25T18:22:50.742Z,9.10
2018-03-25T18:25:20.419Z,9.02
2018-03-25T18:27:49.763Z,9.10
2018-03-25T18:30:18.666Z,9.09
2018-03-25T18:32:48.049Z,9.05
2018-03-25T18:35:17.635Z,9.00
2018-03-25T18:37:46.543Z,9.00
2018-03-25T18:40:16.823Z,9.02
2018-03-25T18:42:45.898Z,9.00
2018-03-25T18:45:15.703Z,9.05
2018-03-25T18:47:46.374Z,9.01
2018-03-25T18:50:15.458Z,8.98
2018-03-25T18:52:44.118Z,8.95
2018-03-25T18:55:14.007Z,8.79
2018-03-25T18:57:43.826Z,8.87
2018-03-25T19:00:12.512Z,8.85
2018-03-25T19:02:43.294Z,8.85
2018-03-25T19:05:12.233Z,8.85
2018-03-25T19:07:40.830Z,8.88
2018-03-25T19:10:09.449Z,8.80
2018-03-25T19:12:38.959Z,8.84
2018-03-25T19:15:07.334Z,8.86
2018-03-25T19:17:36.720Z,8.85
2018-03-25T19:20:05.216Z,8.85
2018-03-25T19:22:33.977Z,8.87
2018-03-25T19:25:02.701Z,8.82
2018-03-25T19:27:31.149Z,8.85
2018-03-25T19:29:59.789Z,8.81
2018-03-25T19:32:28.748Z,8.76
2018-03-25T19:34:57.298Z,8.70
2018-03-25T19:37:25.884Z,8.67
2018-03-25T19:39:54.599Z,8.68
2018-03-25T19:42:23.730Z,8.70
2018-03-25T19:44:52.551Z,8.68
2018-03-25T19:47:21.465Z,8.66
2018-03-25T19:49:50.215Z,8.66
2018-03-25T19:52:18.887Z,8.65
2018-03-25T19:54:49.876Z,8.58
2018-03-25T19:57:18.330Z,8.53
2018-03-25T19:59:47.072Z,8.53
2018-03-25T20:02:16.288Z,8.53
2018-03-25T20:04:44.731Z,8.55
2018-03-25T20:07:13.227Z,8.53
2018-03-25T20:09:41.730Z,8.52
2018-03-25T20:12:10.286Z,8.47
2018-03-25T20:14:38.708Z,8.46
2018-03-25T20:17:07.151Z,8.41
2018-03-25T20:19:35.589Z,8.46
2018-03-25T20:22:03.960Z,8.44
2018-03-25T20:24:32.639Z,8.41
2018-03-25T20:27:01.065Z,8.41
2018-03-25T20:29:29.576Z,8.38
2018-03-25T20:31:58.028Z,8.36
2018-03-25T20:34:26.432Z,8.35
2018-03-25T20:36:54.874Z,8.38
2018-03-25T20:42:15.395Z,8.26
2018-03-25T20:44:44.023Z,8.24
2018-03-25T20:47:12.493Z,8.26
2018-03-25T20:49:42.005Z,8.24
2018-03-25T20:52:10.447Z,8.17
2018-03-25T20:54:39.064Z,8.14
2018-03-25T20:57:07.926Z,8.09
2018-03-25T20:59:36.350Z,8.12
2018-03-25T21:02:04.770Z,8.14
2018-03-25T21:04:33.299Z,8.17
2018-03-25T21:07:01.698Z,8.15
2018-03-25T21:09:30.480Z,8.17
2018-03-25T21:11:59.490Z,8.15
2018-03-25T21:14:27.894Z,8.15
2018-03-25T21:16:56.328Z,8.13
2018-03-25T21:19:25.900Z,8.10
2018-03-25T21:21:54.424Z,8.08
2018-03-25T21:24:22.960Z,8.04
2018-03-25T21:26:52.622Z,8.05
2018-03-25T21:29:21.257Z,8.01
2018-03-25T21:31:49.728Z,7.97
2018-03-25T21:34:18.494Z,7.96
2018-03-25T21:36:47.102Z,7.94
2018-03-25T21:39:15.619Z,7.87
2018-03-25T21:41:44.115Z,7.83
2018-03-25T21:44:12.816Z,7.82
2018-03-25T21:46:41.357Z,7.76
2018-03-25T21:49:10.485Z,7.74
2018-03-25T21:51:39.699Z,7.70
2018-03-25T21:54:08.237Z,7.63
2018-03-25T21:56:37.145Z,7.60
2018-03-25T21:59:05.531Z,7.58
2018-03-25T22:01:33.971Z,7.54
2018-03-25T22:04:02.427Z,7.53
2018-03-25T22:06:30.899Z,7.49
2018-03-25T22:08:59.318Z,7.46
2018-03-25T22:11:28.942Z,7.39
2018-03-25T22:13:57.442Z,7.33
2018-03-25T22:16:25.918Z,7.28
2018-03-25T22:19:01.645Z,7.25
2018-03-25T22:21:31.330Z,7.24
2018-03-25T22:23:59.780Z,7.22
2018-03-25T22:26:28.775Z,7.15
2018-03-25T22:28:57.604Z,7.15
2018-03-25T22:31:26.762Z,7.14
2018-03-25T22:33:55.423Z,7.15
2018-03-25T22:36:24.321Z,7.10
2018-03-25T22:38:52.893Z,7.05
2018-03-25T22:41:21.446Z,6.99
2018-03-25T22:43:50.191Z,6.87
2018-03-25T22:46:18.817Z,6.89
2018-03-25T22:48:47.272Z,6.84
2018-03-25T22:51:16.627Z,6.76
2018-03-25T22:53:44.997Z,6.84
2018-03-25T22:56:13.412Z,6.81
2018-03-25T22:58:42.259Z,6.73
2018-03-25T23:01:10.934Z,6.85
2018-03-25T23:03:46.440Z,6.91
2018-03-25T23:06:14.958Z,6.90
2018-03-25T23:08:43.338Z,6.77
2018-03-25T23:11:13.662Z,6.73
2018-03-25T23:13:42.175Z,6.79
2018-03-25T23:16:10.933Z,6.78
2018-03-25T23:18:39.369Z,6.66
2018-03-25T23:21:07.815Z,6.58
2018-03-25T23:23:36.819Z,6.36
2018-03-25T23:26:06.929Z,6.45
2018-03-25T23:28:35.515Z,6.45
2018-03-25T23:31:03.953Z,6.47
2018-03-25T23:33:33.108Z,6.31
2018-03-25T23:36:01.605Z,6.23
2018-03-25T23:38:30.292Z,6.00
2018-03-25T23:40:59.014Z,6.06
2018-03-25T23:43:27.495Z,6.10
2018-03-25T23:45:56.446Z,5.91
2018-03-25T23:48:25.330Z,6.10
2018-03-25T23:50:54.119Z,6.08
2018-03-25T23:53:23.687Z,6.06
2018-03-25T23:55:52.315Z,5.95
2018-03-25T23:58:20.809Z,6.02
